sensor_id;sensor_type;location;lat;lon;timestamp;pressure;altitude;pressure_sealevel;temperature;humidity
41898;BME280;27576;53.366;-1.498;2023-08-30T00:00:35;99381.75;;;13.51;100.00
41898;BME280;27576;53.366;-1.498;2023-08-30T00:03:01;99388.63;;;13.56;100.00
41898;BME280;27576;53.366;-1.498;2023-08-30T00:05:26;99366.31;;;13.41;100.00
41898;BME280;27576;53.366;-1.498;2023-08-30T00:07:53;99356.88;;;13.34;100.00
41898;BME280;27576;53.366;-1.498;2023-08-30T00:10:18;99390.44;;;13.50;100.00
41898;BME280;27576;53.366;-1.498;2023-08-30T00:12:44;99364.69;;;13.32;100.00
41898;BME280;27576;53.366;-1.498;2023-08-30T00:15:09;99381.03;;;13.42;100.00
41898;BME280;27576;53.366;-1.498;2023-08-30T00:17:34;99354.38;;;13.26;100.00
41898;BME280;27576;53.366;-1.498;2023-08-30T00:20:00;99390.59;;;13.40;100.00
41898;BME280;27576;53.366;-1.498;2023-08-30T00:22:26;99361.34;;;13.24;100.00
41898;BME280;27576;53.366;-1.498;2023-08-30T00:24:52;99388.06;;;13.35;100.00
41898;BME280;27576;53.366;-1.498;2023-08-30T00:27:18;99397.66;;;13.32;100.00
41898;BME280;27576;53.366;-1.498;2023-08-30T00:29:45;99396.84;;;13.28;100.00
41898;BME280;27576;53.366;-1.498;2023-08-30T00:32:11;99408.09;;;13.30;100.00
41898;BME280;27576;53.366;-1.498;2023-08-30T00:34:36;99395.16;;;13.25;100.00
41898;BME280;27576;53.366;-1.498;2023-08-30T00:37:02;99404.72;;;13.23;100.00
41898;BME280;27576;53.366;-1.498;2023-08-30T00:39:27;99404.75;;;13.20;100.00
41898;BME280;27576;53.366;-1.498;2023-08-30T00:41:52;99387.56;;;13.09;100.00
41898;BME280;27576;53.366;-1.498;2023-08-30T00:44:18;99380.66;;;13.06;100.00
41898;BME280;27576;53.366;-1.498;2023-08-30T00:46:43;99385.03;;;13.02;100.00
41898;BME280;27576;53.366;-1.498;2023-08-30T00:49:09;99379.75;;;13.07;100.00
41898;BME280;27576;53.366;-1.498;2023-08-30T00:51:35;99377.19;;;13.06;100.00
41898;BME280;27576;53.366;-1.498;2023-08-30T00:54:01;99360.06;;;12.91;100.00
41898;BME280;27576;53.366;-1.498;2023-08-30T00:56:27;99401.34;;;13.12;100.00
41898;BME280;27576;53.366;-1.498;2023-08-30T00:58:53;99398.75;;;13.12;100.00
41898;BME280;27576;53.366;-1.498;2023-08-30T01:01:19;99396.22;;;13.09;100.00
41898;BME280;27576;53.366;-1.498;2023-08-30T01:03:45;99379.88;;;13.01;100.00
41898;BME280;27576;53.366;-1.498;2023-08-30T01:06:10;99368.72;;;12.91;100.00
41898;BME280;27576;53.366;-1.498;2023-08-30T01:08:36;99359.19;;;12.89;100.00
41898;BME280;27576;53.366;-1.498;2023-08-30T01:11:18;99385.06;;;13.01;100.00
41898;BME280;27576;53.366;-1.498;2023-08-30T01:13:56;99376.44;;;12.97;100.00
41898;BME280;27576;53.366;-1.498;2023-08-30T01:16:24;99392.91;;;12.96;100.00
41898;BME280;27576;53.366;-1.498;2023-08-30T01:18:54;99380.91;;;12.86;100.00
41898;BME280;27576;53.366;-1.498;2023-08-30T01:21:48;99386.94;;;12.90;100.00
41898;BME280;27576;53.366;-1.498;2023-08-30T01:24:24;99383.63;;;12.78;100.00
41898;BME280;27576;53.366;-1.498;2023-08-30T01:27:09;99384.38;;;12.87;100.00
41898;BME280;27576;53.366;-1.498;2023-08-30T01:29:37;99380.06;;;12.84;100.00
41898;BME280;27576;53.366;-1.498;2023-08-30T01:32:04;99362.88;;;12.72;100.00
41898;BME280;27576;53.366;-1.498;2023-08-30T01:34:31;99389.63;;;12.82;100.00
41898;BME280;27576;53.366;-1.498;2023-08-30T01:36:57;99350.84;;;12.65;100.00
41898;BME280;27576;53.366;-1.498;2023-08-30T01:39:24;99370.63;;;12.78;100.00
41898;BME280;27576;53.366;-1.498;2023-08-30T01:41:50;99344.78;;;12.65;100.00
41898;BME280;27576;53.366;-1.498;2023-08-30T01:44:17;99369.75;;;12.78;100.00
41898;BME280;27576;53.366;-1.498;2023-08-30T01:46:43;99350.81;;;12.70;100.00
41898;BME280;27576;53.366;-1.498;2023-08-30T01:49:11;99341.38;;;12.63;100.00
41898;BME280;27576;53.366;-1.498;2023-08-30T01:51:37;99346.47;;;12.70;100.00
41898;BME280;27576;53.366;-1.498;2023-08-30T01:54:04;99346.47;;;12.69;100.00
41898;BME280;27576;53.366;-1.498;2023-08-30T01:56:30;99352.59;;;12.66;100.00
41898;BME280;27576;53.366;-1.498;2023-08-30T01:58:55;99349.22;;;12.58;100.00
41898;BME280;27576;53.366;-1.498;2023-08-30T02:01:21;99344.03;;;12.58;100.00
41898;BME280;27576;53.366;-1.498;2023-08-30T02:03:46;99317.34;;;12.44;100.00
41898;BME280;27576;53.366;-1.498;2023-08-30T02:06:16;99354.28;;;12.67;100.00
41898;BME280;27576;53.366;-1.498;2023-08-30T02:09:04;99321.59;;;12.51;100.00
41898;BME280;27576;53.366;-1.498;2023-08-30T02:11:34;99343.97;;;12.61;100.00
41898;BME280;27576;53.366;-1.498;2023-08-30T02:14:01;99324.19;;;12.51;100.00
41898;BME280;27576;53.366;-1.498;2023-08-30T02:16:30;99305.22;;;12.41;100.00
41898;BME280;27576;53.366;-1.498;2023-08-30T02:18:56;99333.63;;;12.58;100.00
41898;BME280;27576;53.366;-1.498;2023-08-30T02:21:22;99337.09;;;12.59;100.00
41898;BME280;27576;53.366;-1.498;2023-08-30T02:23:51;99315.59;;;12.46;100.00
41898;BME280;27576;53.366;-1.498;2023-08-30T02:26:19;99329.34;;;12.54;100.00
41898;BME280;27576;53.366;-1.498;2023-08-30T02:28:45;99306.16;;;12.39;100.00
41898;BME280;27576;53.366;-1.498;2023-08-30T02:31:10;99323.31;;;12.50;100.00
41898;BME280;27576;53.366;-1.498;2023-08-30T02:33:35;99291.47;;;12.33;100.00
41898;BME280;27576;53.366;-1.498;2023-08-30T02:36:03;99288.13;;;12.26;100.00
41898;BME280;27576;53.366;-1.498;2023-08-30T02:38:28;99316.50;;;12.42;100.00
41898;BME280;27576;53.366;-1.498;2023-08-30T02:40:53;99319.09;;;12.40;100.00
41898;BME280;27576;53.366;-1.498;2023-08-30T02:43:19;99319.97;;;12.41;100.00
41898;BME280;27576;53.366;-1.498;2023-08-30T02:45:44;99301.09;;;12.26;100.00
41898;BME280;27576;53.366;-1.498;2023-08-30T02:48:09;99317.41;;;12.39;100.00
41898;BME280;27576;53.366;-1.498;2023-08-30T02:50:35;99309.72;;;12.28;100.00
41898;BME280;27576;53.366;-1.498;2023-08-30T02:53:00;99303.72;;;12.22;100.00
41898;BME280;27576;53.366;-1.498;2023-08-30T02:55:25;99298.50;;;12.26;100.00
41898;BME280;27576;53.366;-1.498;2023-08-30T02:57:50;99300.28;;;12.21;100.00
41898;BME280;27576;53.366;-1.498;2023-08-30T03:00:16;99288.22;;;12.14;100.00
41898;BME280;27576;53.366;-1.498;2023-08-30T03:02:41;99319.28;;;12.25;100.00
41898;BME280;27576;53.366;-1.498;2023-08-30T03:05:07;99319.31;;;12.23;100.00
41898;BME280;27576;53.366;-1.498;2023-08-30T03:07:32;99321.09;;;12.20;100.00
41898;BME280;27576;53.366;-1.498;2023-08-30T03:09:58;99312.50;;;12.13;100.00
41898;BME280;27576;53.366;-1.498;2023-08-30T03:12:23;99288.44;;;11.99;100.00
41898;BME280;27576;53.366;-1.498;2023-08-30T03:14:49;99299.59;;;12.07;100.00
41898;BME280;27576;53.366;-1.498;2023-08-30T03:17:14;99306.50;;;12.08;100.00
41898;BME280;27576;53.366;-1.498;2023-08-30T03:19:39;99328.84;;;12.21;100.00
41898;BME280;27576;53.366;-1.498;2023-08-30T03:22:05;99313.25;;;12.23;100.00
41898;BME280;27576;53.366;-1.498;2023-08-30T03:24:30;99309.75;;;12.25;100.00
41898;BME280;27576;53.366;-1.498;2023-08-30T03:26:55;99302.88;;;12.23;100.00
41898;BME280;27576;53.366;-1.498;2023-08-30T03:29:21;99283.91;;;12.16;100.00
41898;BME280;27576;53.366;-1.498;2023-08-30T03:31:47;99308.88;;;12.28;100.00
41898;BME280;27576;53.366;-1.498;2023-08-30T03:34:12;99306.31;;;12.26;100.00
41898;BME280;27576;53.366;-1.498;2023-08-30T03:36:38;99304.53;;;12.28;100.00
41898;BME280;27576;53.366;-1.498;2023-08-30T03:39:04;99276.16;;;12.12;100.00
41898;BME280;27576;53.366;-1.498;2023-08-30T03:41:30;99300.22;;;12.27;100.00
41898;BME280;27576;53.366;-1.498;2023-08-30T03:43:55;99292.50;;;12.23;100.00
41898;BME280;27576;53.366;-1.498;2023-08-30T03:46:21;99265.91;;;12.02;100.00
41898;BME280;27576;53.366;-1.498;2023-08-30T03:48:46;99286.53;;;12.13;100.00
41898;BME280;27576;53.366;-1.498;2023-08-30T03:51:11;99290.88;;;12.11;100.00
41898;BME280;27576;53.366;-1.498;2023-08-30T03:53:37;99308.13;;;12.17;100.00
41898;BME280;27576;53.366;-1.498;2023-08-30T03:56:03;99298.75;;;12.07;100.00
41898;BME280;27576;53.366;-1.498;2023-08-30T03:58:29;99300.41;;;12.11;100.00
41898;BME280;27576;53.366;-1.498;2023-08-30T04:00:54;99277.22;;;11.94;100.00
41898;BME280;27576;53.366;-1.498;2023-08-30T04:03:20;99303.97;;;12.00;100.00
41898;BME280;27576;53.366;-1.498;2023-08-30T04:05:45;99310.84;;;12.06;100.00
41898;BME280;27576;53.366;-1.498;2023-08-30T04:08:10;99315.16;;;12.06;100.00
41898;BME280;27576;53.366;-1.498;2023-08-30T04:10:41;99316.09;;;12.01;100.00
41898;BME280;27576;53.366;-1.498;2023-08-30T04:13:07;99313.50;;;12.03;100.00
41898;BME280;27576;53.366;-1.498;2023-08-30T04:15:36;99307.50;;;11.93;100.00
41898;BME280;27576;53.366;-1.498;2023-08-30T04:18:03;99315.22;;;12.01;100.00
41898;BME280;27576;53.366;-1.498;2023-08-30T04:20:29;99318.72;;;12.00;100.00
41898;BME280;27576;53.366;-1.498;2023-08-30T04:22:54;99316.09;;;12.01;100.00
41898;BME280;27576;53.366;-1.498;2023-08-30T04:25:22;99292.84;;;11.89;100.00
41898;BME280;27576;53.366;-1.498;2023-08-30T04:27:47;99298.06;;;11.88;100.00
41898;BME280;27576;53.366;-1.498;2023-08-30T04:30:13;99294.59;;;11.89;100.00
41898;BME280;27576;53.366;-1.498;2023-08-30T04:32:38;99290.28;;;11.86;100.00
41898;BME280;27576;53.366;-1.498;2023-08-30T04:35:04;99293.69;;;11.90;100.00
41898;BME280;27576;53.366;-1.498;2023-08-30T04:37:30;99308.34;;;11.97;100.00
41898;BME280;27576;53.366;-1.498;2023-08-30T04:39:57;99284.22;;;11.83;100.00
41898;BME280;27576;53.366;-1.498;2023-08-30T04:42:22;99269.56;;;11.78;100.00
41898;BME280;27576;53.366;-1.498;2023-08-30T04:44:47;99312.66;;;11.98;100.00
41898;BME280;27576;53.366;-1.498;2023-08-30T04:47:13;99292.03;;;11.87;100.00
41898;BME280;27576;53.366;-1.498;2023-08-30T04:49:38;99310.06;;;11.98;100.00
41898;BME280;27576;53.366;-1.498;2023-08-30T04:52:04;99273.00;;;11.80;100.00
41898;BME280;27576;53.366;-1.498;2023-08-30T04:54:29;99304.84;;;12.02;100.00
41898;BME280;27576;53.366;-1.498;2023-08-30T04:56:55;99310.03;;;12.01;100.00
41898;BME280;27576;53.366;-1.498;2023-08-30T04:59:20;99304.00;;;11.97;100.00
41898;BME280;27576;53.366;-1.498;2023-08-30T05:01:45;99310.88;;;12.04;100.00
41898;BME280;27576;53.366;-1.498;2023-08-30T05:04:11;99281.56;;;11.90;100.00
41898;BME280;27576;53.366;-1.498;2023-08-30T05:06:36;99316.00;;;12.09;100.00
41898;BME280;27576;53.366;-1.498;2023-08-30T05:09:02;99319.44;;;12.10;100.00
41898;BME280;27576;53.366;-1.498;2023-08-30T05:11:27;99313.41;;;12.11;100.00
41898;BME280;27576;53.366;-1.498;2023-08-30T05:13:54;99303.94;;;12.05;100.00
41898;BME280;27576;53.366;-1.498;2023-08-30T05:16:19;99320.31;;;12.10;100.00
41898;BME280;27576;53.366;-1.498;2023-08-30T05:18:45;99310.00;;;12.04;100.00
41898;BME280;27576;53.366;-1.498;2023-08-30T05:21:10;99303.19;;;11.94;100.00
41898;BME280;27576;53.366;-1.498;2023-08-30T05:23:35;99317.78;;;12.07;100.00
41898;BME280;27576;53.366;-1.498;2023-08-30T05:26:01;99294.53;;;11.93;100.00
41898;BME280;27576;53.366;-1.498;2023-08-30T05:28:26;99297.97;;;11.97;100.00
41898;BME280;27576;53.366;-1.498;2023-08-30T05:30:51;99299.66;;;12.01;100.00
41898;BME280;27576;53.366;-1.498;2023-08-30T05:33:17;99289.38;;;11.92;100.00
41898;BME280;27576;53.366;-1.498;2023-08-30T05:35:42;99316.94;;;12.02;100.00
41898;BME280;27576;53.366;-1.498;2023-08-30T05:38:07;99315.22;;;12.02;100.00
41898;BME280;27576;53.366;-1.498;2023-08-30T05:40:33;99319.50;;;12.05;100.00
41898;BME280;27576;53.366;-1.498;2023-08-30T05:42:58;99315.19;;;12.07;100.00
41898;BME280;27576;53.366;-1.498;2023-08-30T05:45:23;99322.94;;;12.09;100.00
41898;BME280;27576;53.366;-1.498;2023-08-30T05:47:49;99314.25;;;12.11;100.00
41898;BME280;27576;53.366;-1.498;2023-08-30T05:50:14;99263.38;;;11.93;100.00
41898;BME280;27576;53.366;-1.498;2023-08-30T05:52:39;99297.69;;;12.21;100.00
41898;BME280;27576;53.366;-1.498;2023-08-30T05:55:07;99307.09;;;12.32;100.00
41898;BME280;27576;53.366;-1.498;2023-08-30T05:57:33;99297.50;;;12.37;100.00
41898;BME280;27576;53.366;-1.498;2023-08-30T05:59:59;99270.03;;;12.17;100.00
41898;BME280;27576;53.366;-1.498;2023-08-30T06:02:25;99288.91;;;12.32;100.00
41898;BME280;27576;53.366;-1.498;2023-08-30T06:04:50;99310.41;;;12.44;100.00
41898;BME280;27576;53.366;-1.498;2023-08-30T06:07:15;99311.19;;;12.51;100.00
41898;BME280;27576;53.366;-1.498;2023-08-30T06:09:41;99307.75;;;12.50;100.00
41898;BME280;27576;53.366;-1.498;2023-08-30T06:12:06;99312.91;;;12.52;100.00
41898;BME280;27576;53.366;-1.498;2023-08-30T06:14:32;99291.41;;;12.38;100.00
41898;BME280;27576;53.366;-1.498;2023-08-30T06:16:57;99304.25;;;12.51;100.00
41898;BME280;27576;53.366;-1.498;2023-08-30T06:19:22;99309.44;;;12.51;100.00
41898;BME280;27576;53.366;-1.498;2023-08-30T06:21:48;99298.25;;;12.45;100.00
41898;BME280;27576;53.366;-1.498;2023-08-30T06:24:13;99302.59;;;12.46;100.00
41898;BME280;27576;53.366;-1.498;2023-08-30T06:26:38;99296.50;;;12.48;100.00
41898;BME280;27576;53.366;-1.498;2023-08-30T06:29:04;99299.03;;;12.53;100.00
41898;BME280;27576;53.366;-1.498;2023-08-30T06:31:29;99303.31;;;12.57;100.00
41898;BME280;27576;53.366;-1.498;2023-08-30T06:33:54;99296.41;;;12.55;100.00
41898;BME280;27576;53.366;-1.498;2023-08-30T06:36:20;99279.97;;;12.52;100.00
41898;BME280;27576;53.366;-1.498;2023-08-30T06:38:48;99269.59;;;12.54;100.00
41898;BME280;27576;53.366;-1.498;2023-08-30T06:41:13;99297.84;;;12.77;100.00
41898;BME280;27576;53.366;-1.498;2023-08-30T06:43:38;99301.97;;;12.93;100.00
41898;BME280;27576;53.366;-1.498;2023-08-30T06:46:04;99264.78;;;12.87;100.00
41898;BME280;27576;53.366;-1.498;2023-08-30T06:48:29;99292.88;;;13.20;100.00
41898;BME280;27576;53.366;-1.498;2023-08-30T06:50:57;99292.84;;;13.23;100.00
41898;BME280;27576;53.366;-1.498;2023-08-30T06:53:23;99300.66;;;13.25;100.00
41898;BME280;27576;53.366;-1.498;2023-08-30T06:55:57;99292.03;;;13.18;100.00
41898;BME280;27576;53.366;-1.498;2023-08-30T06:58:22;99276.59;;;13.08;100.00
41898;BME280;27576;53.366;-1.498;2023-08-30T07:00:47;99297.28;;;13.17;100.00
41898;BME280;27576;53.366;-1.498;2023-08-30T07:03:13;99293.84;;;13.13;100.00
41898;BME280;27576;53.366;-1.498;2023-08-30T07:05:38;99309.41;;;13.16;100.00
41898;BME280;27576;53.366;-1.498;2023-08-30T07:08:03;99280.16;;;13.00;100.00
41898;BME280;27576;53.366;-1.498;2023-08-30T07:10:29;99293.91;;;13.10;100.00
41898;BME280;27576;53.366;-1.498;2023-08-30T07:12:54;99274.19;;;12.97;100.00
41898;BME280;27576;53.366;-1.498;2023-08-30T07:15:20;99268.09;;;12.96;100.00
41898;BME280;27576;53.366;-1.498;2023-08-30T07:17:45;99301.59;;;13.16;100.00
41898;BME280;27576;53.366;-1.498;2023-08-30T07:20:10;99304.09;;;13.22;100.00
41898;BME280;27576;53.366;-1.498;2023-08-30T07:22:36;99303.25;;;13.23;100.00
41898;BME280;27576;53.366;-1.498;2023-08-30T07:25:01;99317.06;;;13.29;100.00
41898;BME280;27576;53.366;-1.498;2023-08-30T07:27:28;99323.06;;;13.34;100.00
41898;BME280;27576;53.366;-1.498;2023-08-30T07:29:53;99287.75;;;13.14;100.00
41898;BME280;27576;53.366;-1.498;2023-08-30T07:32:19;99319.56;;;13.36;100.00
41898;BME280;27576;53.366;-1.498;2023-08-30T07:34:44;99292.84;;;13.22;100.00
41898;BME280;27576;53.366;-1.498;2023-08-30T07:37:17;99297.03;;;13.34;100.00
41898;BME280;27576;53.366;-1.498;2023-08-30T07:39:43;99323.69;;;13.48;100.00
41898;BME280;27576;53.366;-1.498;2023-08-30T07:42:09;99290.97;;;13.33;100.00
41898;BME280;27576;53.366;-1.498;2023-08-30T07:44:34;99327.13;;;13.50;100.00
41898;BME280;27576;53.366;-1.498;2023-08-30T07:46:59;99315.91;;;13.46;100.00
41898;BME280;27576;53.366;-1.498;2023-08-30T07:49:25;99307.28;;;13.44;100.00
41898;BME280;27576;53.366;-1.498;2023-08-30T07:51:50;99287.44;;;13.36;100.00
41898;BME280;27576;53.366;-1.498;2023-08-30T07:54:15;99313.25;;;13.49;100.00
41898;BME280;27576;53.366;-1.498;2023-08-30T07:56:41;99328.63;;;13.63;100.00
41898;BME280;27576;53.366;-1.498;2023-08-30T07:59:06;99310.56;;;13.54;100.00
41898;BME280;27576;53.366;-1.498;2023-08-30T08:01:31;99339.16;;;13.57;100.00
41898;BME280;27576;53.366;-1.498;2023-08-30T08:03:57;99286.69;;;13.29;100.00
41898;BME280;27576;53.366;-1.498;2023-08-30T08:06:22;99303.06;;;13.36;100.00
41898;BME280;27576;53.366;-1.498;2023-08-30T08:08:47;99316.72;;;13.50;100.00
41898;BME280;27576;53.366;-1.498;2023-08-30T08:11:13;99318.28;;;13.59;100.00
41898;BME280;27576;53.366;-1.498;2023-08-30T08:13:38;99306.13;;;13.59;100.00
41898;BME280;27576;53.366;-1.498;2023-08-30T08:16:04;99299.84;;;13.71;100.00
41898;BME280;27576;53.366;-1.498;2023-08-30T08:18:29;99304.78;;;13.86;100.00
41898;BME280;27576;53.366;-1.498;2023-08-30T08:20:54;99312.47;;;13.94;100.00
41898;BME280;27576;53.366;-1.498;2023-08-30T08:23:20;99318.38;;;14.04;100.00
41898;BME280;27576;53.366;-1.498;2023-08-30T08:25:45;99320.91;;;14.07;100.00
41898;BME280;27576;53.366;-1.498;2023-08-30T08:28:10;99303.75;;;13.96;100.00
41898;BME280;27576;53.366;-1.498;2023-08-30T08:30:36;99323.44;;;14.11;100.00
41898;BME280;27576;53.366;-1.498;2023-08-30T08:33:01;99320.09;;;14.05;100.00
41898;BME280;27576;53.366;-1.498;2023-08-30T08:35:26;99312.41;;;13.97;100.00
41898;BME280;27576;53.366;-1.498;2023-08-30T08:37:52;99315.16;;;13.89;100.00
41898;BME280;27576;53.366;-1.498;2023-08-30T08:40:17;99331.44;;;14.00;100.00
41898;BME280;27576;53.366;-1.498;2023-08-30T08:42:43;99325.41;;;13.98;100.00
41898;BME280;27576;53.366;-1.498;2023-08-30T08:45:10;99338.19;;;14.11;100.00
41898;BME280;27576;53.366;-1.498;2023-08-30T08:47:37;99334.72;;;14.10;100.00
41898;BME280;27576;53.366;-1.498;2023-08-30T08:50:02;99310.66;;;13.99;100.00
41898;BME280;27576;53.366;-1.498;2023-08-30T08:52:29;99342.50;;;14.13;100.00
41898;BME280;27576;53.366;-1.498;2023-08-30T08:54:55;99332.34;;;13.98;100.00
41898;BME280;27576;53.366;-1.498;2023-08-30T08:57:21;99330.84;;;13.86;100.00
41898;BME280;27576;53.366;-1.498;2023-08-30T08:59:46;99337.91;;;13.80;100.00
41898;BME280;27576;53.366;-1.498;2023-08-30T09:02:14;99340.69;;;13.67;100.00
41898;BME280;27576;53.366;-1.498;2023-08-30T09:04:40;99312.47;;;13.43;100.00
41898;BME280;27576;53.366;-1.498;2023-08-30T09:07:06;99335.78;;;13.52;100.00
41898;BME280;27576;53.366;-1.498;2023-08-30T09:09:33;99339.22;;;13.53;100.00
41898;BME280;27576;53.366;-1.498;2023-08-30T09:11:58;99312.59;;;13.35;100.00
41898;BME280;27576;53.366;-1.498;2023-08-30T09:14:24;99338.25;;;13.58;100.00
41898;BME280;27576;53.366;-1.498;2023-08-30T09:17:00;99346.13;;;13.55;100.00
41898;BME280;27576;53.366;-1.498;2023-08-30T09:19:26;99336.59;;;13.54;100.00
41898;BME280;27576;53.366;-1.498;2023-08-30T09:21:56;99341.63;;;13.63;100.00
41898;BME280;27576;53.366;-1.498;2023-08-30T09:24:22;99272.03;;;13.23;100.00
41898;BME280;27576;53.366;-1.498;2023-08-30T09:26:52;99339.97;;;13.59;100.00
41898;BME280;27576;53.366;-1.498;2023-08-30T09:29:19;99333.00;;;13.61;100.00
41898;BME280;27576;53.366;-1.498;2023-08-30T09:31:46;99326.13;;;13.57;100.00
41898;BME280;27576;53.366;-1.498;2023-08-30T09:34:11;99321.69;;;13.62;100.00
41898;BME280;27576;53.366;-1.498;2023-08-30T09:36:40;99330.97;;;13.79;100.00
41898;BME280;27576;53.366;-1.498;2023-08-30T09:39:11;99323.72;;;13.96;100.00
41898;BME280;27576;53.366;-1.498;2023-08-30T09:41:47;99291.41;;;14.06;100.00
41898;BME280;27576;53.366;-1.498;2023-08-30T09:44:14;99311.44;;;14.47;100.00
41898;BME280;27576;53.366;-1.498;2023-08-30T09:46:59;99323.53;;;14.93;100.00
41898;BME280;27576;53.366;-1.498;2023-08-30T09:49:26;99323.06;;;15.13;100.00
41898;BME280;27576;53.366;-1.498;2023-08-30T09:51:53;99327.09;;;15.27;100.00
41898;BME280;27576;53.366;-1.498;2023-08-30T09:54:20;99321.03;;;15.62;100.00
41898;BME280;27576;53.366;-1.498;2023-08-30T09:56:46;99325.72;;;15.83;100.00
41898;BME280;27576;53.366;-1.498;2023-08-30T09:59:13;99310.41;;;15.69;100.00
41898;BME280;27576;53.366;-1.498;2023-08-30T10:01:40;99321.16;;;15.57;100.00
41898;BME280;27576;53.366;-1.498;2023-08-30T10:04:09;99319.34;;;15.59;100.00
41898;BME280;27576;53.366;-1.498;2023-08-30T10:06:37;99299.03;;;15.72;100.00
41898;BME280;27576;53.366;-1.498;2023-08-30T10:09:03;99323.34;;;16.08;100.00
41898;BME280;27576;53.366;-1.498;2023-08-30T10:11:32;99309.72;;;16.28;100.00
41898;BME280;27576;53.366;-1.498;2023-08-30T10:13:58;99294.72;;;16.35;100.00
41898;BME280;27576;53.366;-1.498;2023-08-30T10:16:26;99289.78;;;16.55;100.00
41898;BME280;27576;53.366;-1.498;2023-08-30T10:18:54;99309.81;;;16.86;100.00
41898;BME280;27576;53.366;-1.498;2023-08-30T10:21:25;99307.44;;;16.78;100.00
41898;BME280;27576;53.366;-1.498;2023-08-30T10:23:52;99309.63;;;16.92;100.00
41898;BME280;27576;53.366;-1.498;2023-08-30T10:26:23;99309.00;;;17.12;100.00
41898;BME280;27576;53.366;-1.498;2023-08-30T10:28:51;99276.28;;;16.97;100.00
41898;BME280;27576;53.366;-1.498;2023-08-30T10:31:17;99296.28;;;17.28;100.00
41898;BME280;27576;53.366;-1.498;2023-08-30T10:33:53;99302.69;;;17.46;100.00
41898;BME280;27576;53.366;-1.498;2023-08-30T10:36:26;99308.47;;;17.55;100.00
41898;BME280;27576;53.366;-1.498;2023-08-30T10:38:55;99293.56;;;17.57;100.00
41898;BME280;27576;53.366;-1.498;2023-08-30T10:41:25;99306.88;;;17.78;100.00
41898;BME280;27576;53.366;-1.498;2023-08-30T10:43:52;99307.03;;;17.98;100.00
41898;BME280;27576;53.366;-1.498;2023-08-30T10:46:32;99313.13;;;17.99;94.04
41898;BME280;27576;53.366;-1.498;2023-08-30T10:49:14;99314.09;;;17.96;96.86
41898;BME280;27576;53.366;-1.498;2023-08-30T10:51:40;99301.00;;;17.96;99.57
41898;BME280;27576;53.366;-1.498;2023-08-30T10:54:14;99311.53;;;18.20;95.73
41898;BME280;27576;53.366;-1.498;2023-08-30T10:56:47;99316.47;;;18.04;97.03
41898;BME280;27576;53.366;-1.498;2023-08-30T10:59:19;99310.44;;;17.75;88.65
41898;BME280;27576;53.366;-1.498;2023-08-30T11:01:49;99271.13;;;17.49;90.93
41898;BME280;27576;53.366;-1.498;2023-08-30T11:04:15;99317.00;;;17.88;92.05
41898;BME280;27576;53.366;-1.498;2023-08-30T11:06:46;99322.56;;;18.04;91.55
41898;BME280;27576;53.366;-1.498;2023-08-30T11:09:30;99287.47;;;18.08;91.57
41898;BME280;27576;53.366;-1.498;2023-08-30T11:11:55;99310.09;;;18.34;94.51
41898;BME280;27576;53.366;-1.498;2023-08-30T11:14:21;99323.28;;;18.56;90.19
41898;BME280;27576;53.366;-1.498;2023-08-30T11:16:47;99329.88;;;18.67;88.67
41898;BME280;27576;53.366;-1.498;2023-08-30T11:19:12;99329.78;;;18.71;92.14
41898;BME280;27576;53.366;-1.498;2023-08-30T11:21:39;99325.84;;;18.83;88.05
41898;BME280;27576;53.366;-1.498;2023-08-30T11:24:06;99326.50;;;18.88;87.53
41898;BME280;27576;53.366;-1.498;2023-08-30T11:26:32;99335.59;;;19.01;86.86
41898;BME280;27576;53.366;-1.498;2023-08-30T11:28:57;99309.41;;;19.00;87.38
41898;BME280;27576;53.366;-1.498;2023-08-30T11:31:26;99324.09;;;18.82;85.71
41898;BME280;27576;53.366;-1.498;2023-08-30T11:33:53;99343.59;;;18.51;84.30
41898;BME280;27576;53.366;-1.498;2023-08-30T11:36:21;99344.16;;;18.11;87.84
41898;BME280;27576;53.366;-1.498;2023-08-30T11:38:50;99348.56;;;17.84;87.78
41898;BME280;27576;53.366;-1.498;2023-08-30T11:41:16;99319.91;;;17.53;90.22
41898;BME280;27576;53.366;-1.498;2023-08-30T11:43:41;99333.22;;;17.72;91.93
41898;BME280;27576;53.366;-1.498;2023-08-30T11:46:10;99332.31;;;17.99;92.58
41898;BME280;27576;53.366;-1.498;2023-08-30T11:48:39;99312.19;;;18.01;89.10
41898;BME280;27576;53.366;-1.498;2023-08-30T11:51:05;99331.22;;;18.06;90.62
41898;BME280;27576;53.366;-1.498;2023-08-30T11:53:31;99313.56;;;17.86;87.67
41898;BME280;27576;53.366;-1.498;2023-08-30T11:55:57;99320.97;;;17.74;90.06
41898;BME280;27576;53.366;-1.498;2023-08-30T11:58:22;99334.00;;;17.77;90.10
41898;BME280;27576;53.366;-1.498;2023-08-30T12:00:50;99320.50;;;17.87;88.70
41898;BME280;27576;53.366;-1.498;2023-08-30T12:03:16;99340.50;;;18.15;88.26
41898;BME280;27576;53.366;-1.498;2023-08-30T12:05:48;99345.63;;;18.20;91.11
41898;BME280;27576;53.366;-1.498;2023-08-30T12:10:45;99307.78;;;17.77;87.70
41898;BME280;27576;53.366;-1.498;2023-08-30T12:13:33;99344.16;;;17.86;88.27
41898;BME280;27576;53.366;-1.498;2023-08-30T12:15:59;99327.81;;;17.51;86.71
41898;BME280;27576;53.366;-1.498;2023-08-30T12:18:32;99341.72;;;17.53;87.33
41898;BME280;27576;53.366;-1.498;2023-08-30T12:21:03;99363.00;;;17.42;85.61
41898;BME280;27576;53.366;-1.498;2023-08-30T12:23:30;99351.63;;;17.15;84.56
41898;BME280;27576;53.366;-1.498;2023-08-30T12:26:05;99365.16;;;17.02;84.96
41898;BME280;27576;53.366;-1.498;2023-08-30T12:28:33;99355.09;;;16.88;86.86
41898;BME280;27576;53.366;-1.498;2023-08-30T12:30:59;99357.25;;;17.03;88.92
41898;BME280;27576;53.366;-1.498;2023-08-30T12:33:25;99345.41;;;17.20;90.77
41898;BME280;27576;53.366;-1.498;2023-08-30T12:35:51;99353.97;;;17.25;88.12
41898;BME280;27576;53.366;-1.498;2023-08-30T12:38:16;99347.00;;;17.25;88.15
41898;BME280;27576;53.366;-1.498;2023-08-30T12:40:45;99359.78;;;17.34;87.30